Terminal Aerodrome Forecast
Issued by NWS Detroit/Pontiac, MI

Home | Current Version | Previous Version | Text Only | Print | Product List | Glossary On
Versions: 1 2 3 4 5 6 7 8 9 10 11 12 13 14 15 16 17 18
000
FTUS43 KDTX 221725
TAFFNT
TAF
KFNT 221725Z 2218/2318 33012KT P6SM SKC
     FM222200 36010KT P6SM SKC
     FM230300 09005KT P6SM SKC
     FM231000 VRB04KT P6SM SKC=

USA.gov is the U.S. government's official web portal to all federal, state and local government web resources and services.